Terminal Aerodrome Forecast
Issued by NWS Louisville, KY

Home | Current Version | Previous Version | Graphics & Text | Print | Product List | Glossary On
Versions: 1 2 3 4 5 6 7 8 9 10 11 12 13
000
FTUS43 KLMK 231734
TAFLEX
TAF
KLEX 231734Z 2318/2418 10012G19KT P6SM VCSH BKN021 OVC040
     FM232000 10013KT P6SM VCSH SCT025 BKN040
      TEMPO 2320/2323 OVC025
     FM232300 09012G20KT P6SM VCSH SCT030 OVC040
     FM240400 10013KT P6SM BKN025 OVC040
     FM241000 09009KT P6SM -SHRA OVC015=

USA.gov is the U.S. government's official web portal to all federal, state and local government web resources and services.